Time;durP1;ratioP1;P1;durP2;ratioP2;P2;SDS_P1;SDS_P2;PMS_P1;PMS_P2;Temp;Humidity;BMP_temperature;BMP_pressure;BME280_temperature;BME280_humidity;BME280_pressure;Samples;Min_cycle;Max_cycle;Signal;HPM_P1;HPM_P2
2022/08/14 00:04:22;;;;;;;2.90;1.60;;;;;;;15.74;64.51;97275.81;18293376;32;20109;-62
2022/08/14 00:14:43;;;;;;;2.43;1.67;;;;;;;15.61;65.11;97258.44;18300373;32;20072;-62
2022/08/14 00:24:45;;;;;;;6.43;3.43;;;;;;;15.48;65.98;97262.84;18290201;32;20098;-62
2022/08/14 00:34:49;;;;;;;;;;;;;;;15.34;67.20;97245.78;18302936;32;20103;-62
2022/08/14 00:44:54;;;;;;;3.30;2.43;;;;;;;15.18;68.21;97231.75;18302584;32;19988;-62
2022/08/14 00:54:56;;;;;;;3.75;2.65;;;;;;;15.02;68.97;97232.13;18288074;32;20042;-62
2022/08/14 01:05:06;;;;;;;3.13;2.60;;;;;;;14.93;69.82;97227.75;18288259;32;20051;-62
2022/08/14 01:15:09;;;;;;;3.20;2.77;;;;;;;14.82;70.18;97213.56;18300923;32;20054;-62
2022/08/14 01:25:15;;;;;;;6.40;2.30;;;;;;;14.67;70.99;97198.41;18299730;32;20050;-62
2022/08/14 01:35:18;;;;;;;2.97;2.13;;;;;;;14.55;71.75;97188.84;18285940;32;20099;-62
2022/08/14 01:45:41;;;;;;;4.23;2.00;;;;;;;14.49;72.34;97178.38;18299473;32;20072;-62
2022/08/14 01:55:50;;;;;;;3.07;1.83;;;;;;;14.41;72.37;97152.72;18298828;32;20050;-62
2022/08/14 02:05:57;;;;;;;3.10;2.10;;;;;;;14.39;72.68;97149.53;18298415;32;20085;-62
2022/08/14 02:15:59;;;;;;;2.53;2.10;;;;;;;14.36;73.50;97137.34;18297973;32;20050;-62
2022/08/14 02:26:29;;;;;;;2.13;1.80;;;;;;;14.29;73.80;97115.19;18297340;32;20055;-62
2022/08/14 02:36:31;;;;;;;2.53;2.33;;;;;;;14.24;74.95;97112.59;18296882;32;20081;-62
2022/08/14 02:46:56;;;;;;;4.53;3.07;;;;;;;14.11;74.99;97106.06;18296341;32;20098;-62
2022/08/14 02:57:05;;;;;;;7.00;2.70;;;;;;;13.94;74.94;97104.03;18295763;32;20046;-62
2022/08/14 03:07:28;;;;;;;4.97;3.10;;;;;;;13.75;75.32;97085.12;18295244;32;20088;-62
2022/08/14 03:17:30;;;;;;;5.07;2.67;;;;;;;13.59;76.10;97078.44;18294712;32;20057;-62
2022/08/14 03:27:53;;;;;;;3.30;2.23;;;;;;;13.40;76.72;97073.91;18294812;32;20152;-62
2022/08/14 03:38:11;;;;;;;3.40;2.23;;;;;;;13.25;77.56;97057.91;18294811;32;20084;-62
2022/08/14 03:48:34;;;;;;;2.83;2.23;;;;;;;13.13;78.37;97056.50;18299699;32;20434;-62
2022/08/14 03:58:45;;;;;;;5.40;2.27;;;;;;;13.05;79.11;97068.84;18304541;32;20050;-62
2022/08/14 04:08:48;;;;;;;2.80;2.40;;;;;;;12.96;79.01;97072.56;18304284;32;20068;-62
2022/08/14 04:18:54;;;;;;;5.03;3.10;;;;;;;12.88;79.51;97061.31;18303476;32;20058;-64
2022/08/14 04:28:57;;;;;;;4.77;2.63;;;;;;;12.84;80.04;97081.19;18303551;32;20050;-64
2022/08/14 04:49:47;;;;;;;4.13;2.50;;;;;;;12.78;81.17;97096.75;18302034;32;20034;-64
2022/08/14 04:59:58;;;;;;;3.97;2.60;;;;;;;12.77;80.54;97078.91;18237438;32;20083;-64
2022/08/14 05:10:00;;;;;;;3.90;2.60;;;;;;;12.86;81.27;97070.84;18237878;32;20055;-64
2022/08/14 05:20:18;;;;;;;3.77;2.70;;;;;;;13.04;81.52;97042.03;18236908;32;20084;-64
2022/08/14 05:30:42;;;;;;;3.47;2.30;;;;;;;13.31;80.84;97021.41;18236318;32;20059;-64
2022/08/14 05:40:46;;;;;;;3.27;2.20;;;;;;;13.73;80.42;97019.41;18235764;32;20413;-64
2022/08/14 05:50:49;;;;;;;3.70;2.67;;;;;;;14.21;79.56;97010.69;18236657;32;20046;-64
2022/08/14 06:00:52;;;;;;;3.80;2.50;;;;;;;14.73;78.57;96993.06;18294460;32;20490;-64
2022/08/14 06:11:02;;;;;;;2.57;2.20;;;;;;;15.24;77.99;96986.19;18297614;32;20061;-64
2022/08/14 06:21:05;;;;;;;3.00;2.30;;;;;;;15.79;76.11;97002.28;18297653;32;20054;-64
2022/08/14 06:31:14;;;;;;;3.65;2.40;;;;;;;16.41;74.59;96996.47;18284601;32;20441;-64
2022/08/14 06:41:17;;;;;;;3.95;1.92;;;;;;;17.15;73.36;96996.38;18283224;32;20121;-62
2022/08/14 06:51:21;;;;;;;2.58;1.58;;;;;;;18.08;67.41;97020.22;18296217;32;20047;-62
2022/08/14 07:11:45;;;;;;;2.37;1.80;;;;;;;19.28;63.72;97042.31;18295345;32;20088;-62
2022/08/14 07:21:48;;;;;;;2.53;1.70;;;;;;;19.32;64.72;97056.12;18293711;32;20062;-62
2022/08/14 07:31:51;;;;;;;1.92;1.73;;;;;;;20.14;59.05;97019.44;18294048;32;20109;-62
2022/08/14 07:41:54;;;;;;;2.07;1.87;;;;;;;21.17;52.69;97036.28;18294537;32;20085;-62
2022/08/14 07:52:01;;;;;;;2.20;1.85;;;;;;;21.90;51.30;97047.81;18293080;32;20105;-62
2022/08/14 08:02:05;;;;;;;5.07;1.90;;;;;;;22.79;50.05;97061.00;18293107;32;20114;-62
2022/08/14 08:12:20;;;;;;;2.47;1.80;;;;;;;23.53;49.36;97065.47;18278989;32;20092;-62
2022/08/14 08:22:31;;;;;;;2.30;1.83;;;;;;;23.89;48.17;97071.53;18268335;32;20070;-62
2022/08/14 08:32:40;;;;;;;2.20;1.95;;;;;;;23.97;46.53;97044.84;18282080;32;20062;-62
2022/08/14 08:42:43;;;;;;;2.08;1.70;;;;;;;24.19;47.08;97021.03;18302601;32;20072;-62
2022/08/14 08:52:48;;;;;;;3.03;2.25;;;;;;;24.92;45.40;97026.19;18301457;32;20046;-62
2022/08/14 09:03:01;;;;;;;3.37;2.20;;;;;;;25.57;43.22;97050.84;18301531;32;20399;-62
2022/08/14 09:13:05;;;;;;;;;;;;;;;26.00;42.49;97035.28;18301871;32;20054;-62
2022/08/14 09:23:10;;;;;;;2.50;1.98;;;;;;;26.37;43.10;97031.50;18300670;32;20351;-62
2022/08/14 09:33:32;;;;;;;2.97;1.95;;;;;;;26.81;41.82;97031.66;18300567;32;20065;-62
2022/08/14 09:43:44;;;;;;;2.37;2.17;;;;;;;27.00;40.26;97033.28;18298647;32;20154;-62
2022/08/14 09:54:11;;;;;;;5.22;3.17;;;;;;;27.25;39.84;97024.94;18299113;32;20057;-62
2022/08/14 10:04:27;;;;;;;3.40;2.92;;;;;;;27.41;40.00;97016.25;18298665;32;20049;-62
2022/08/14 10:14:37;;;;;;;3.07;2.77;;;;;;;27.78;41.16;97005.84;18298074;32;20042;-62
2022/08/14 10:24:45;;;;;;;5.22;3.22;;;;;;;28.44;41.86;96994.12;18297405;32;20209;-62
2022/08/14 10:35:04;;;;;;;5.32;3.75;;;;;;;28.86;40.75;97003.44;18296648;32;20061;-62
2022/08/14 10:45:29;;;;;;;6.28;4.00;;;;;;;29.17;41.81;97008.38;18296611;32;20061;-62
2022/08/14 10:55:45;;;;;;;4.07;3.65;;;;;;;29.35;41.34;97003.44;18281468;32;20359;-62
2022/08/14 11:05:52;;;;;;;5.07;4.10;;;;;;;29.35;44.26;97013.81;18295658;32;20050;-62
2022/08/14 11:16:02;;;;;;;5.00;3.90;;;;;;;29.38;42.40;97016.56;18295110;32;20407;-62
2022/08/14 11:26:07;;;;;;;5.97;4.32;;;;;;;29.01;42.21;97018.03;18294611;32;20062;-62
2022/08/14 11:36:12;;;;;;;5.32;4.35;;;;;;;29.97;38.51;97025.97;18294501;32;20049;-63
2022/08/14 11:46:22;;;;;;;7.60;4.35;;;;;;;29.70;40.53;97029.41;18294126;32;20047;-63
2022/08/14 11:56:41;;;;;;;5.45;4.80;;;;;;;29.79;42.35;97037.25;18293509;32;20046;-62
2022/08/14 12:06:48;;;;;;;6.37;5.32;;;;;;;29.10;39.66;97031.47;18282261;32;20054;-62
2022/08/14 12:17:08;;;;;;;4.70;3.65;;;;;;;29.19;39.36;97028.22;18304028;32;20050;-62
2022/08/14 12:27:15;;;;;;;;;;;;;;;28.34;36.64;97045.00;18290119;32;20094;-62
2022/08/14 12:37:30;;;;;;;3.65;2.05;;;;;;;28.06;36.41;97053.03;18303094;32;20287;-62
2022/08/14 12:47:34;;;;;;;6.82;2.00;;;;;;;27.83;35.28;97053.50;18289347;32;20046;-62
2022/08/14 12:57:42;;;;;;;3.17;2.17;;;;;;;27.08;36.75;97043.19;18275404;32;20088;-62
2022/08/14 13:07:51;;;;;;;3.97;2.22;;;;;;;27.24;37.94;97053.88;18288793;32;20050;-62
2022/08/14 13:17:56;;;;;;;6.45;2.70;;;;;;;26.89;41.63;97027.72;18299892;32;20113;-62
2022/08/14 13:28:02;;;;;;;5.07;2.75;;;;;;;27.28;40.92;97028.91;18300461;32;20066;-62
2022/08/14 13:38:13;;;;;;;5.07;3.20;;;;;;;27.47;40.23;97016.66;18300098;32;20043;-62
2022/08/14 13:48:18;;;;;;;3.85;2.22;;;;;;;27.64;37.66;96995.59;18299863;32;20058;-62
2022/08/14 13:58:38;;;;;;;3.60;2.62;;;;;;;27.65;40.76;96980.50;18287112;32;20042;-62
2022/08/14 14:08:51;;;;;;;5.12;3.00;;;;;;;27.72;40.86;96972.97;18298473;32;20051;-62
2022/08/14 14:18:59;;;;;;;4.32;2.33;;;;;;;27.38;43.04;96967.06;18284139;32;20101;-62
2022/08/14 14:29:13;;;;;;;3.50;2.78;;;;;;;27.18;48.00;96956.38;18283018;32;20084;-62
2022/08/14 14:39:21;;;;;;;5.32;2.65;;;;;;;26.92;47.11;96957.56;18297342;32;20050;-62
2022/08/14 14:49:26;;;;;;;3.12;2.53;;;;;;;26.68;44.82;96948.81;18296375;32;20362;-62
2022/08/14 14:59:51;;;;;;;3.40;2.67;;;;;;;26.55;47.15;96956.69;18284476;32;20061;-62
2022/08/14 15:09:55;;;;;;;2.28;2.08;;;;;;;26.19;48.65;96969.72;18295471;32;20114;-62
2022/08/14 15:20:02;;;;;;;4.35;2.75;;;;;;;25.85;48.37;96969.94;18295223;32;20092;-62
2022/08/14 15:30:07;;;;;;;4.30;2.08;;;;;;;25.50;50.21;96971.31;18294498;32;20074;-62
2022/08/14 15:40:11;;;;;;;4.03;2.50;;;;;;;25.18;52.70;96958.81;18281280;32;20046;-62
2022/08/14 15:50:24;;;;;;;2.83;2.47;;;;;;;24.94;53.77;96956.66;18305458;32;20064;-62
2022/08/14 16:10:53;;;;;;;3.12;2.70;;;;;;;24.39;55.10;96949.03;18303760;32;20054;-62
2022/08/14 16:20:58;;;;;;;3.67;2.50;;;;;;;24.11;55.75;96951.09;18290119;32;20065;-62
2022/08/14 16:31:02;;;;;;;3.80;2.45;;;;;;;24.00;56.41;96962.03;18289702;32;20069;-62
2022/08/14 16:51:52;;;;;;;3.42;2.62;;;;;;;23.79;56.63;96940.44;18166772;32;20496;-62
2022/08/14 17:01:56;;;;;;;;;;;;;;;23.71;57.42;96933.25;18167278;32;20144;-62
2022/08/14 17:12:09;;;;;;;3.28;2.33;;;;;;;23.67;57.52;96932.41;18166480;32;20001;-62
2022/08/14 17:22:58;;;;;;;3.53;2.40;;;;;;;23.51;58.40;96927.06;18195795;32;20051;-62
2022/08/14 17:33:12;;;;;;;3.45;2.40;;;;;;;23.35;58.62;96917.00;18237774;32;20461;-62
2022/08/14 17:43:16;;;;;;;3.53;2.17;;;;;;;23.39;58.51;96911.53;18236985;32;20366;-62
2022/08/14 17:53:18;;;;;;;;;;;;;;;23.38;58.15;96917.41;18247639;32;20066;-62
2022/08/14 18:03:27;;;;;;;4.37;2.00;;;;;;;23.19;58.66;96924.66;18285176;32;19964;-62
2022/08/14 18:13:50;;;;;;;2.80;1.80;;;;;;;22.92;59.40;96910.81;18298366;32;20066;-62
2022/08/14 18:23:54;;;;;;;6.00;2.00;;;;;;;22.78;58.81;96916.91;18297927;32;20050;-62
2022/08/14 18:33:58;;;;;;;;;;;;;;;22.64;59.61;96916.69;18284038;32;20046;-62
2022/08/14 18:44:00;;;;;;;6.70;1.87;;;;;;;22.39;60.58;96913.50;18296993;32;20317;-62
2022/08/14 18:54:05;;;;;;;3.23;2.10;;;;;;;22.22;61.34;96920.25;18295947;32;20054;-62
2022/08/14 19:04:37;;;;;;;2.80;1.85;;;;;;;22.04;62.36;96922.69;18296115;32;20485;-62
2022/08/14 19:14:45;;;;;;;3.30;1.70;;;;;;;21.82;63.54;96928.53;18282551;32;20350;-62
2022/08/14 19:24:49;;;;;;;6.62;2.47;;;;;;;21.63;64.46;96945.84;18295075;32;20429;-62
2022/08/14 19:34:54;;;;;;;4.28;2.05;;;;;;;21.48;65.10;96946.66;18269066;32;20094;-62
2022/08/14 19:45:12;;;;;;;5.55;2.87;;;;;;;21.29;66.70;96945.47;18294185;32;20073;-61
2022/08/14 19:55:18;;;;;;;5.10;3.47;;;;;;;21.11;68.48;96934.06;18280020;32;20501;-62
2022/08/14 20:05:22;;;;;;;4.78;2.92;;;;;;;20.96;69.57;96957.66;18279597;32;20404;-62
2022/08/14 20:15:29;;;;;;;3.97;2.97;;;;;;;20.86;70.51;96952.72;18267458;32;20076;-62
2022/08/14 20:25:49;;;;;;;3.53;2.10;;;;;;;20.70;72.00;96949.97;18293645;32;20050;-62
2022/08/14 20:35:58;;;;;;;4.03;2.22;;;;;;;20.61;72.43;96943.81;18290216;32;20437;-62
2022/08/14 20:46:26;;;;;;;2.53;1.83;;;;;;;20.57;73.22;96945.66;18302921;32;20083;-62
2022/08/14 20:56:34;;;;;;;2.12;1.70;;;;;;;20.43;73.46;96940.59;18302019;32;20376;-62
2022/08/14 21:06:39;;;;;;;2.40;2.03;;;;;;;20.30;75.24;96948.91;18288061;32;20081;-62
2022/08/14 21:17:03;;;;;;;2.22;1.60;;;;;;;20.21;75.52;96948.28;18301259;32;20068;-62
2022/08/14 21:27:08;;;;;;;3.53;1.67;;;;;;;20.05;76.97;96945.50;18300669;32;20074;-62
2022/08/14 21:37:21;;;;;;;2.90;1.65;;;;;;;19.95;77.93;96963.28;18299283;32;20117;-62
2022/08/14 21:47:24;;;;;;;3.50;2.00;;;;;;;19.89;78.80;96977.59;18300015;32;20126;-61
2022/08/14 21:57:27;;;;;;;2.92;1.90;;;;;;;19.98;77.82;97011.97;18299064;32;20069;-61
2022/08/14 22:07:49;;;;;;;3.15;1.67;;;;;;;20.08;72.54;97015.38;18287694;32;20099;-62
2022/08/14 22:17:56;;;;;;;2.28;1.40;;;;;;;20.22;71.12;97054.19;18298492;32;20429;-61
2022/08/14 22:28:03;;;;;;;2.53;1.35;;;;;;;19.79;81.36;97063.88;18297426;32;20057;-61
2022/08/14 22:38:05;;;;;;;3.90;1.48;;;;;;;19.24;84.96;97083.31;18297409;32;20373;-61
2022/08/14 22:48:28;;;;;;;1.73;1.30;;;;;;;18.81;87.91;97098.28;18282720;32;20055;-61
2022/08/14 22:58:30;;;;;;;2.87;1.63;;;;;;;18.53;90.27;97082.44;18295981;32;20054;-61
2022/08/14 23:08:36;;;;;;;1.70;1.35;;;;;;;18.28;91.51;97063.19;18295938;32;20165;-61
2022/08/14 23:18:59;;;;;;;3.37;1.52;;;;;;;18.06;92.55;97030.69;18295523;32;20092;-61
2022/08/14 23:29:04;;;;;;;2.10;1.17;;;;;;;17.85;93.49;97031.47;18281077;32;20072;-61
2022/08/14 23:39:06;;;;;;;2.35;1.27;;;;;;;17.65;93.53;97018.59;18280750;32;20187;-61
2022/08/14 23:49:20;;;;;;;2.30;1.37;;;;;;;17.31;94.08;97001.28;18294155;32;20105;-61
2022/08/14 23:59:22;;;;;;;1.80;1.30;;;;;;;17.06;94.36;97001.09;18293558;32;20038;-61
